Terminal Aerodrome Forecast
Issued by NWS

Home | Current Version | Previous Version | Text Only | Print | Product List | Glossary On
Versions: 1 2 3 4 5 6 7 8 9 10 11 12 13 14 15 16 17 18 19 20 21 22 23 24
000
FTUS43 KGRR 211100
TAFAZO
TAF
KAZO 211140Z 2112/2212 23016G24KT P6SM SCT040
     FM211500 25024G34KT P6SM VCSH BKN040
     FM220100 25011KT P6SM SCT040=

USA.gov is the U.S. government's official web portal to all federal, state and local government web resources and services.